»·PEaware :: N888LV KBUR-KSAN

N888LV :: KBUR-KSAN

FLIGHT INFORMATION

Flight Status: Arrived
Operator: Privately registered:
United States
More flights under this callsign
Pilot: Cheng L. (9279)
Aircraft: BEECH AIRCRAFT BARON
(BE58)
More flights by this aircraft type
Origin: KBUR Bob Hope-Burbank
United States
Destination: KSAN San Diego Intl-Lindbergh
United States
More flights between these airports :: More routes between these airports
Route: +ELMOO8 ELMOO V186 HAILE V66 MZB
File this flight plan on PilotEdge
Remarks: Request ILS Runway 09
Altitude:
(Current/Filed)
9,000ft
Speed:
(Current/Filed)
200kts
Departed: 07-Oct-17 08:33 PM
Arrived: 07-Oct-17 09:31 PM
Distance/Time
Traveled:
106nm/0:58
Distance/Time
To Go:
Arrived

Flight Plot

Page will automatically refresh every two minutes.


Map Options




Map Legend


Flown Route
Filed Route
Departure Airport
Arrival Airport
Navaid (VOR, NDB)
Fix

Horizontal Profiles

Position Reports

Time Latitude Longitude Heading Altitude Ground
Speed
07-Oct-17 20:24 34.086043 -118.033311 24 286ft 0kts
07-Oct-17 20:26 34.086043 -118.033311 24 286ft 0kts
07-Oct-17 20:26 34.086043 -118.033311 24 286ft 0kts
07-Oct-17 20:27 34.086043 -118.033311 24 286ft 0kts
07-Oct-17 20:28 34.086043 -118.033311 24 286ft 0kts
07-Oct-17 20:29 34.086043 -118.033311 24 286ft 0kts
07-Oct-17 20:30 34.086429 -118.033349 332 286ft 0kts
07-Oct-17 20:31 34.200198 -118.358748 263 718ft 0kts
07-Oct-17 20:32 34.198970 -118.361552 269 718ft 19kts
07-Oct-17 20:33 34.199147 -118.368722 261 724ft 23kts
07-Oct-17 20:34 34.198654 -118.369045 191 723ft 0kts
07-Oct-17 20:35 34.198654 -118.369045 191 723ft 0kts
07-Oct-17 20:36 34.198654 -118.369045 191 723ft 0kts
07-Oct-17 20:37 34.197888 -118.364560 91 718ft 86kts
07-Oct-17 20:38 34.189940 -118.330192 103 1958ft 108kts
07-Oct-17 20:39 34.167328 -118.296170 135 2568ft 135kts
07-Oct-17 20:40 34.148630 -118.267183 97 3983ft 114kts
07-Oct-17 20:41 34.141937 -118.231719 106 5261ft 112kts
07-Oct-17 20:42 34.132206 -118.196529 109 6529ft 116kts
07-Oct-17 20:43 34.121236 -118.160658 110 7936ft 113kts
07-Oct-17 20:44 34.110239 -118.125759 110 9191ft 112kts
07-Oct-17 20:45 34.095217 -118.078592 111 9153ft 174kts
07-Oct-17 20:46 34.077468 -118.023085 111 9139ft 183kts
07-Oct-17 20:47 34.059146 -117.965905 111 9138ft 184kts
07-Oct-17 20:48 34.040797 -117.909673 110 9132ft 175kts
07-Oct-17 20:49 34.022953 -117.853386 111 9139ft 182kts
07-Oct-17 20:50 34.004737 -117.796740 111 9137ft 183kts
07-Oct-17 20:51 33.986692 -117.740759 111 9138ft 180kts
07-Oct-17 20:52 33.968625 -117.684909 111 9138ft 181kts
07-Oct-17 20:53 33.951261 -117.631202 111 9144ft 181kts
07-Oct-17 20:54 33.932908 -117.574738 111 9138ft 181kts
07-Oct-17 20:55 33.909437 -117.523477 142 9141ft 180kts
07-Oct-17 20:56 33.869086 -117.488750 144 9138ft 181kts
07-Oct-17 20:57 33.827895 -117.454120 144 9138ft 181kts
07-Oct-17 20:58 33.787165 -117.420007 144 9138ft 181kts
07-Oct-17 20:59 33.746585 -117.386072 144 9138ft 181kts
07-Oct-17 21:00 33.706337 -117.352454 144 9138ft 181kts
07-Oct-17 21:01 33.665872 -117.318693 145 9138ft 181kts
07-Oct-17 21:02 33.625213 -117.284811 145 9138ft 181kts
07-Oct-17 21:03 33.585241 -117.251555 145 9138ft 181kts
07-Oct-17 21:04 33.546615 -117.219525 145 9141ft 169kts
07-Oct-17 21:05 33.506383 -117.186040 145 9141ft 183kts
07-Oct-17 21:06 33.461472 -117.158134 169 9140ft 185kts
07-Oct-17 21:07 33.411553 -117.147533 170 9138ft 185kts
07-Oct-17 21:08 33.360675 -117.136748 169 9138ft 185kts
07-Oct-17 21:09 33.310043 -117.126023 169 9138ft 185kts
07-Oct-17 21:10 33.259781 -117.115388 169 9138ft 185kts
07-Oct-17 21:11 33.209341 -117.104727 170 9131ft 186kts
07-Oct-17 21:12 33.159167 -117.094140 169 9128ft 185kts
07-Oct-17 21:13 33.109541 -117.083686 170 9128ft 185kts
07-Oct-17 21:14 33.058882 -117.073012 169 9129ft 185kts
07-Oct-17 21:15 33.009656 -117.062633 169 8325ft 177kts
07-Oct-17 21:16 32.967610 -117.053693 169 5857ft 144kts
07-Oct-17 21:17 32.930250 -117.045704 169 4087ft 125kts
07-Oct-17 21:18 32.889776 -117.037129 169 3862ft 158kts
07-Oct-17 21:19 32.849495 -117.028574 169 3129ft 132kts
07-Oct-17 21:20 32.809379 -117.020052 169 3189ft 166kts
07-Oct-17 21:21 32.766717 -117.014839 189 3152ft 145kts
07-Oct-17 21:22 32.729413 -117.022499 189 3107ft 134kts
07-Oct-17 21:23 32.692395 -117.039726 255 1601ft 158kts
07-Oct-17 21:24 32.691598 -117.082669 277 2164ft 150kts
07-Oct-17 21:25 32.705774 -117.122053 294 2158ft 132kts
07-Oct-17 21:26 32.738581 -117.128572 10 3205ft 165kts
07-Oct-17 21:27 32.762251 -117.092254 100 3140ft 164kts
07-Oct-17 21:28 32.754217 -117.042271 100 3126ft 148kts
07-Oct-17 21:29 32.731523 -117.015391 189 3141ft 135kts
07-Oct-17 21:30 32.703554 -117.034208 266 2110ft 105kts
07-Oct-17 21:31 32.705311 -117.067312 277 2217ft 113kts
07-Oct-17 21:32 32.711903 -117.100510 285 2169ft 93kts
07-Oct-17 21:33 32.719238 -117.130584 281 1781ft 96kts
07-Oct-17 21:34 32.726738 -117.162173 285 375ft 99kts
07-Oct-17 21:35 32.731714 -117.182290 289 11ft 2kts
07-Oct-17 21:36 32.731490 -117.184976 234 11ft 2kts
07-Oct-17 21:37 32.733072 -117.192019 292 13ft 29kts
07-Oct-17 21:38 32.731368 -117.195157 200 14ft 0kts
07-Oct-17 21:39 32.731368 -117.195157 200 14ft 0kts
07-Oct-17 21:40 32.731368 -117.195157 200 14ft 0kts
07-Oct-17 21:41 32.731368 -117.195157 200 14ft 0kts
07-Oct-17 21:42 32.731368 -117.195157 200 14ft 0kts
07-Oct-17 21:43 32.731368 -117.195157 200 14ft 0kts

Navigation Log

Ident Type
1. KBUR Airport
2. ELMOO Fix
3. ITSME Fix
4. PIRRO Fix
5. ADAMM Fix
6. BAYJY Fix
7. TIFNI Fix
8. PDZ Navaid
9. NIKKL Fix
10. WESIN Fix
11. TANNR Fix
12. DEGLE Fix
13. ROBNN Fix
14. HAILE Fix
15. MZB Navaid
16. KSAN Airport